createdAt,value
2022-12-02T00:09:34.529Z,4.54
2022-12-02T00:19:39.511Z,4.53
2022-12-02T00:29:43.285Z,4.49
2022-12-02T00:39:48.283Z,4.68
2022-12-02T00:49:51.990Z,4.41
2022-12-02T00:59:57.061Z,4.43
2022-12-02T01:10:00.832Z,4.60
2022-12-02T01:20:07.290Z,4.45
2022-12-02T01:30:12.911Z,4.40
2022-12-02T01:40:19.417Z,4.49
2022-12-02T01:50:23.924Z,4.44
2022-12-02T02:00:29.329Z,4.49
2022-12-02T02:10:34.308Z,4.68
2022-12-02T02:20:42.460Z,4.60
2022-12-02T02:30:48.094Z,4.49
2022-12-02T02:40:52.711Z,4.44
2022-12-02T02:50:58.261Z,4.40
2022-12-02T03:01:08.377Z,4.55
2022-12-02T03:11:13.979Z,4.48
2022-12-02T03:21:20.427Z,4.45
2022-12-02T03:31:26.986Z,4.44
2022-12-02T03:41:30.982Z,4.24
2022-12-02T03:51:36.232Z,4.32
2022-12-02T04:01:39.957Z,4.34
2022-12-02T04:11:45.076Z,4.40
2022-12-02T04:21:48.787Z,4.25
2022-12-02T04:31:53.829Z,4.33
2022-12-02T04:41:57.528Z,4.23
2022-12-02T04:52:02.646Z,4.22
2022-12-02T05:02:06.361Z,4.45
2022-12-02T05:12:11.623Z,4.34
2022-12-02T05:22:15.493Z,4.10
2022-12-02T05:32:20.537Z,3.90
2022-12-02T05:42:24.354Z,3.78
2022-12-02T05:52:30.598Z,3.70
2022-12-02T06:02:41.161Z,3.64
2022-12-02T06:12:46.740Z,3.83
2022-12-02T06:22:50.558Z,3.61
2022-12-02T06:32:59.852Z,3.63
2022-12-02T06:43:13.572Z,3.79
2022-12-02T06:53:37.675Z,3.63
2022-12-02T07:03:47.411Z,3.64
2022-12-02T07:13:52.651Z,3.50
2022-12-02T07:23:57.427Z,3.51
2022-12-02T07:34:02.703Z,3.52
2022-12-02T07:44:06.916Z,3.58
2022-12-02T07:54:12.101Z,3.54
2022-12-02T08:04:16.232Z,3.58
2022-12-02T08:14:21.328Z,3.61
2022-12-02T08:24:25.236Z,3.58
2022-12-02T08:34:30.426Z,3.52
2022-12-02T08:44:34.558Z,3.28
2022-12-02T08:54:40.969Z,3.27
2022-12-02T09:04:45.898Z,3.30
2022-12-02T09:14:51.529Z,3.22
2022-12-02T09:24:55.639Z,3.42
2022-12-02T09:35:01.173Z,3.33
2022-12-02T09:45:06.272Z,3.51
2022-12-02T09:55:16.577Z,3.34
2022-12-02T10:05:23.778Z,3.70
2022-12-02T10:15:31.872Z,3.66
2022-12-02T10:25:37.711Z,3.72
2022-12-02T10:35:48.163Z,3.79
2022-12-02T10:45:58.559Z,3.78
2022-12-02T10:56:03.857Z,3.81
2022-12-02T11:06:14.058Z,4.01
2022-12-02T11:16:54.121Z,3.84
2022-12-02T11:27:15.021Z,4.10
2022-12-02T11:38:21.738Z,4.11
2022-12-02T11:48:25.487Z,4.09
2022-12-02T11:58:33.799Z,3.93
2022-12-02T12:08:38.882Z,3.96
2022-12-02T12:18:47.234Z,4.05
2022-12-02T12:28:50.966Z,4.06
2022-12-02T12:38:56.491Z,4.10
2022-12-02T12:49:00.547Z,4.19
2022-12-02T12:59:05.580Z,4.26
2022-12-02T13:09:09.532Z,4.34
2022-12-02T13:19:14.682Z,4.33
2022-12-02T13:29:18.402Z,4.19
2022-12-02T13:39:23.679Z,4.23
2022-12-02T13:49:27.698Z,4.09
2022-12-02T13:59:37.619Z,4.27
2022-12-02T14:09:42.199Z,4.31
2022-12-02T14:19:47.633Z,4.20
2022-12-02T14:29:51.345Z,4.00
2022-12-02T14:39:56.543Z,4.16
2022-12-02T14:50:00.429Z,3.97
2022-12-02T15:00:07.834Z,3.84
2022-12-02T15:10:12.942Z,4.02
2022-12-02T15:20:18.260Z,3.78
2022-12-02T15:30:22.238Z,3.87
2022-12-02T15:40:27.536Z,3.82
2022-12-02T15:50:31.346Z,3.92
2022-12-02T16:00:36.764Z,3.72
2022-12-02T16:10:40.631Z,3.73
2022-12-02T16:20:48.508Z,3.74
2022-12-02T16:30:54.941Z,3.75
2022-12-02T16:41:00.471Z,3.64
2022-12-02T16:51:04.598Z,3.63
2022-12-02T17:01:09.894Z,3.64
2022-12-02T17:11:13.798Z,3.51
2022-12-02T17:21:18.942Z,3.40
2022-12-02T17:31:22.693Z,3.46
2022-12-02T17:41:30.121Z,3.26
2022-12-02T17:51:34.884Z,3.25
2022-12-02T18:01:40.543Z,3.02
2022-12-02T18:11:44.386Z,3.12
2022-12-02T18:21:49.478Z,3.15
2022-12-02T18:31:53.183Z,2.97
2022-12-02T18:41:58.155Z,2.74
2022-12-02T18:52:02.687Z,2.71
2022-12-02T19:02:07.897Z,2.95
2022-12-02T19:12:11.918Z,2.56
2022-12-02T19:22:17.282Z,2.57
2022-12-02T19:32:22.779Z,2.43
2022-12-02T19:42:27.782Z,2.34
2022-12-02T19:52:31.514Z,2.32
2022-12-02T20:02:36.679Z,2.41
2022-12-02T20:12:40.757Z,2.43
2022-12-02T20:22:45.908Z,2.45
2022-12-02T20:32:49.737Z,2.56
2022-12-02T20:42:54.900Z,2.44
2022-12-02T20:52:58.639Z,2.55
2022-12-02T21:03:04.349Z,2.41
2022-12-02T21:13:08.389Z,2.46
2022-12-02T21:23:13.449Z,2.31
2022-12-02T21:33:17.397Z,2.49
2022-12-02T21:43:22.512Z,2.19
2022-12-02T21:53:26.232Z,2.30
2022-12-02T22:03:33.089Z,2.51
2022-12-02T22:13:36.781Z,2.35
2022-12-02T22:23:41.811Z,2.38
2022-12-02T22:33:45.679Z,2.37
2022-12-02T22:43:50.671Z,2.39
2022-12-02T22:53:54.589Z,2.25
2022-12-02T23:03:59.617Z,2.29
2022-12-02T23:14:04.441Z,2.28
2022-12-02T23:24:09.779Z,2.36
2022-12-02T23:34:13.862Z,2.38
2022-12-02T23:44:18.869Z,2.11
2022-12-02T23:54:22.804Z,2.22
